Time;durP1;ratioP1;P1;durP2;ratioP2;P2;SDS_P1;SDS_P2;PMS_P1;PMS_P2;Temp;Humidity;BMP_temperature;BMP_pressure;BME280_temperature;BME280_humidity;BME280_pressure;Samples;Min_cycle;Max_cycle;Signal;HPM_P1;HPM_P2
2022/06/19 00:02:16;;;;;;;17.25;8.58;;;;;;;16.25;100.00;99157.23;1643327;85;21499;-75
2022/06/19 00:04:44;;;;;;;17.73;8.93;;;;;;;16.23;100.00;99151.18;1688773;85;21077;-75
2022/06/19 00:07:11;;;;;;;19.07;8.85;;;;;;;16.21;100.00;99141.03;1688895;85;21101;-75
2022/06/19 00:09:38;;;;;;;17.98;8.38;;;;;;;16.18;100.00;99134.67;1688883;85;21009;-74
2022/06/19 00:12:08;;;;;;;15.85;8.33;;;;;;;16.14;100.00;99126.11;1673834;85;21146;-75
2022/06/19 00:14:35;;;;;;;17.37;8.73;;;;;;;16.12;100.00;99132.87;1648623;85;21046;-74
2022/06/19 00:17:06;;;;;;;17.65;9.28;;;;;;;16.09;100.00;99126.51;1688505;85;21084;-74
2022/06/19 00:19:33;;;;;;;17.67;8.78;;;;;;;16.08;100.00;99126.23;1724285;82;21516;-75
2022/06/19 00:22:01;;;;;;;15.43;8.68;;;;;;;16.04;100.00;99114.95;1747146;81;21587;-74
2022/06/19 00:24:29;;;;;;;18.40;8.80;;;;;;;16.04;100.00;99110.00;1747026;82;21011;-74
2022/06/19 00:26:57;;;;;;;15.80;8.35;;;;;;;16.00;100.00;99101.98;1746881;82;21106;-76
2022/06/19 00:29:24;;;;;;;16.45;8.63;;;;;;;15.93;100.00;99100.16;1747136;82;21582;-75
2022/06/19 00:31:54;;;;;;;15.53;8.43;;;;;;;15.89;100.00;99095.42;1746835;82;21093;-75
2022/06/19 00:34:21;;;;;;;14.38;7.65;;;;;;;15.84;100.00;99093.91;1747470;82;20967;-75
2022/06/19 00:39:19;;;;;;;13.93;6.95;;;;;;;15.78;100.00;99078.48;1661103;86;21033;-76
2022/06/19 00:41:46;;;;;;;12.95;7.37;;;;;;;15.74;100.00;99074.84;1661564;86;21063;-75
2022/06/19 00:44:14;;;;;;;13.83;7.00;;;;;;;15.72;100.00;99077.44;1661078;86;21072;-73
2022/06/19 00:46:57;;;;;;;12.95;6.90;;;;;;;15.71;100.00;99061.63;1661848;86;21016;-75
2022/06/19 00:49:38;;;;;;;11.18;6.50;;;;;;;15.69;100.00;99048.77;1644164;87;21025;-74
2022/06/19 00:52:16;;;;;;;10.90;6.10;;;;;;;15.68;100.00;99043.55;1619112;89;21119;-74
2022/06/19 00:54:51;;;;;;;12.47;6.47;;;;;;;15.65;100.00;99029.00;1597710;89;21019;-75
2022/06/19 00:57:18;;;;;;;13.55;6.58;;;;;;;15.63;100.00;99027.86;1607526;89;21047;-73
2022/06/19 00:59:50;;;;;;;13.00;6.90;;;;;;;15.64;100.00;99009.64;1584529;89;21603;-74
2022/06/19 01:02:18;;;;;;;10.35;5.95;;;;;;;15.65;100.00;98999.03;1519228;94;21559;-74
2022/06/19 01:04:54;;;;;;;11.80;6.37;;;;;;;15.66;100.00;98988.44;1519020;94;21075;-75
2022/06/19 01:07:23;;;;;;;11.60;6.05;;;;;;;15.65;100.00;98975.36;1480696;97;21157;-74
2022/06/19 01:09:51;;;;;;;10.78;6.12;;;;;;;15.63;100.00;98969.28;1466249;98;21133;-75
2022/06/19 01:12:19;;;;;;;17.75;6.90;;;;;;;15.62;100.00;98976.35;1452422;98;21595;-74
2022/06/19 01:14:48;;;;;;;27.62;8.40;;;;;;;15.62;100.00;98976.35;1448191;99;21105;-74
2022/06/19 01:17:15;;;;;;;18.73;9.75;;;;;;;15.62;100.00;98956.73;1449968;99;21698;-75
2022/06/19 01:19:43;;;;;;;19.65;10.55;;;;;;;15.61;100.00;98940.08;1450810;99;21084;-75
2022/06/19 01:22:46;;;;;;;19.00;10.90;;;;;;;15.59;100.00;98931.30;1450598;99;21061;-74
2022/06/19 01:25:25;;;;;;;18.55;10.88;;;;;;;15.57;100.00;98930.71;1405333;102;21122;-75
2022/06/19 01:30:42;;;;;;;18.40;9.83;;;;;;;15.48;100.00;98920.66;1407366;102;21141;-75
2022/06/19 01:33:14;;;;;;;19.90;10.68;;;;;;;15.40;100.00;98915.52;1391377;102;21140;-74
2022/06/19 01:35:41;;;;;;;17.62;9.85;;;;;;;15.34;100.00;98914.55;1428420;97;21152;-75
2022/06/19 01:38:13;;;;;;;17.80;9.83;;;;;;;15.29;100.00;98913.05;1476808;97;21596;-74
2022/06/19 01:40:42;;;;;;;16.17;10.00;;;;;;;15.22;100.00;98908.22;1477119;97;21076;-75
2022/06/19 01:43:11;;;;;;;15.85;9.18;;;;;;;15.16;100.00;98912.69;1476928;97;21585;-75
2022/06/19 01:45:42;;;;;;;16.93;9.45;;;;;;;15.15;100.00;98903.39;1476881;97;21100;-76
2022/06/19 01:48:09;;;;;;;17.52;9.33;;;;;;;15.12;100.00;98896.52;1442614;98;21162;-75
2022/06/19 01:50:37;;;;;;;16.80;9.83;;;;;;;15.09;100.00;98877.92;1466303;98;21181;-75
2022/06/19 01:53:09;;;;;;;15.35;9.23;;;;;;;15.05;100.00;98883.53;1466461;98;21118;-75
2022/06/19 01:55:37;;;;;;;16.42;8.83;;;;;;;15.01;100.00;98865.97;1411011;102;21174;-74
2022/06/19 01:58:04;;;;;;;16.75;8.90;;;;;;;14.98;100.00;98854.20;1435744;94;21204;-75
2022/06/19 02:00:34;;;;;;;14.93;8.90;;;;;;;14.96;100.00;98856.29;1519355;94;21582;-76
2022/06/19 02:03:15;;;;;;;15.13;8.40;;;;;;;14.94;100.00;98842.08;1573044;84;21146;-75
2022/06/19 02:05:43;;;;;;;14.47;8.40;;;;;;;14.92;100.00;98836.87;1703753;84;21081;-74
2022/06/19 02:08:12;;;;;;;14.78;8.28;;;;;;;14.92;100.00;98827.34;1680742;84;21065;-75
2022/06/19 02:10:40;;;;;;;14.13;8.25;;;;;;;14.91;100.00;98803.92;1680582;83;21045;-75
2022/06/19 02:13:09;;;;;;;14.23;7.80;;;;;;;14.92;100.00;98779.71;1703134;84;21058;-76
2022/06/19 02:15:37;;;;;;;15.65;8.70;;;;;;;14.94;100.00;98759.08;1680312;84;21017;-76
2022/06/19 02:18:06;;;;;;;15.88;8.18;;;;;;;14.95;100.00;98730.27;1703681;84;21171;-74
2022/06/19 02:20:33;;;;;;;13.88;7.55;;;;;;;14.97;100.00;98710.98;1703835;84;20998;-76
2022/06/19 02:23:05;;;;;;;16.45;9.25;;;;;;;15.00;100.00;98671.06;1703691;84;21550;-75
2022/06/19 02:25:30;;;;;;;15.23;9.05;;;;;;;15.03;100.00;98658.87;1703604;84;21077;-76
2022/06/19 02:28:01;;;;;;;17.98;11.22;;;;;;;15.05;100.00;98641.77;1704107;84;21022;-76
2022/06/19 02:30:29;;;;;;;16.52;8.63;;;;;;;15.08;100.00;98624.97;1703563;84;21049;-76
2022/06/19 02:32:56;;;;;;;13.25;7.80;;;;;;;15.12;100.00;98601.65;1680322;84;21080;-75
2022/06/19 02:35:25;;;;;;;13.80;7.90;;;;;;;15.16;100.00;98581.08;1682090;84;21061;-75
2022/06/19 02:37:55;;;;;;;16.37;8.28;;;;;;;15.21;100.00;98559.42;1705117;84;21069;-75
2022/06/19 02:40:57;;;;;;;15.58;8.03;;;;;;;15.26;100.00;98555.96;1704055;84;21045;-76
2022/06/19 02:43:28;;;;;;;12.10;7.03;;;;;;;15.29;100.00;98542.70;1704187;84;21025;-74
2022/06/19 02:45:56;;;;;;;13.85;7.40;;;;;;;15.33;100.00;98530.28;1703890;84;21105;-75
2022/06/19 02:48:27;;;;;;;14.18;7.92;;;;;;;15.37;100.00;98504.77;1683556;84;21084;-75
2022/06/19 02:50:56;;;;;;;15.00;8.50;;;;;;;15.41;100.00;98495.03;1669936;86;21548;-75
2022/06/19 02:53:23;;;;;;;17.07;8.48;;;;;;;15.45;100.00;98479.03;1669617;86;21096;-75
2022/06/19 02:55:50;;;;;;;18.40;8.95;;;;;;;15.49;100.00;98470.16;1669810;86;21101;-74
2022/06/19 02:58:19;;;;;;;21.00;12.13;;;;;;;15.53;100.00;98445.98;1639993;83;21017;-75
2022/06/19 03:00:49;;;;;;;19.45;10.50;;;;;;;15.57;100.00;98439.78;1730048;82;21069;-74
2022/06/19 03:03:35;;;;;;;17.70;9.75;;;;;;;15.63;100.00;98420.27;1729990;83;21034;-75
2022/06/19 03:06:04;;;;;;;16.37;9.45;;;;;;;15.68;100.00;98416.83;1730374;82;21061;-76
2022/06/19 03:08:31;;;;;;;15.68;9.20;;;;;;;15.74;100.00;98404.94;1730282;83;20997;-75
2022/06/19 03:10:58;;;;;;;18.55;8.80;;;;;;;15.79;100.00;98406.97;1734865;82;21029;-74
2022/06/19 03:13:28;;;;;;;15.32;7.80;;;;;;;15.85;100.00;98412.83;1727254;82;21495;-74
2022/06/19 03:16:03;;;;;;;18.00;9.33;;;;;;;15.89;100.00;98407.16;1758679;81;21065;-74
2022/06/19 03:18:31;;;;;;;14.93;7.87;;;;;;;15.96;100.00;98400.20;1760314;81;22268;-75
2022/06/19 03:20:58;;;;;;;18.20;8.58;;;;;;;16.00;100.00;98402.71;1760471;80;21025;-75
2022/06/19 03:23:25;;;;;;;17.90;8.80;;;;;;;16.05;100.00;98396.80;1760066;81;21069;-75
2022/06/19 03:25:53;;;;;;;16.77;9.03;;;;;;;16.11;100.00;98402.65;1732815;81;21025;-74
2022/06/19 03:28:21;;;;;;;17.32;9.38;;;;;;;16.19;100.00;98404.67;1760381;81;21060;-75
2022/06/19 03:30:53;;;;;;;18.12;9.88;;;;;;;16.28;100.00;98401.81;1759976;81;21036;-75
2022/06/19 03:33:21;;;;;;;16.05;8.68;;;;;;;16.38;100.00;98401.98;1759978;81;21010;-76
2022/06/19 03:35:48;;;;;;;19.98;8.95;;;;;;;16.49;100.00;98398.33;1760255;81;21088;-76
2022/06/19 03:38:15;;;;;;;16.65;8.90;;;;;;;16.57;100.00;98409.34;1732809;81;21022;-75
2022/06/19 03:40:43;;;;;;;16.97;8.90;;;;;;;16.64;100.00;98418.73;1760104;81;21061;-75
2022/06/19 03:43:11;;;;;;;19.37;9.55;;;;;;;16.71;100.00;98423.47;1760352;80;20997;-75
2022/06/19 03:45:38;;;;;;;19.10;10.08;;;;;;;16.77;100.00;98425.73;1760439;81;21057;-75
2022/06/19 03:48:06;;;;;;;17.75;9.15;;;;;;;16.84;100.00;98442.27;1763235;80;21001;-75
2022/06/19 03:50:33;;;;;;;16.87;8.78;;;;;;;16.92;100.00;98451.11;1768770;81;21534;-75
2022/06/19 03:53:01;;;;;;;15.98;8.60;;;;;;;16.99;100.00;98447.11;1768305;81;21069;-76
2022/06/19 03:55:30;;;;;;;13.85;7.33;;;;;;;17.07;100.00;98464.98;1768619;81;21041;-75
2022/06/19 03:57:57;;;;;;;14.15;7.58;;;;;;;17.15;100.00;98474.64;1768798;81;21022;-76
2022/06/19 04:00:24;;;;;;;15.72;7.87;;;;;;;17.24;100.00;98482.13;1768954;81;21013;-75
2022/06/19 04:02:52;;;;;;;11.63;6.95;;;;;;;17.34;100.00;98491.56;1768911;81;21065;-75
2022/06/19 04:05:21;;;;;;;12.25;7.00;;;;;;;17.43;100.00;98500.41;1768890;81;21049;-75
2022/06/19 04:07:49;;;;;;;11.50;6.90;;;;;;;17.55;100.00;98514.52;1768991;81;21001;-76
2022/06/19 04:10:18;;;;;;;11.75;7.05;;;;;;;17.65;100.00;98524.18;1768900;81;21010;-75
2022/06/19 04:12:45;;;;;;;14.00;7.12;;;;;;;17.76;100.00;98534.70;1762676;81;21014;-76
2022/06/19 04:15:13;;;;;;;13.30;7.35;;;;;;;17.85;100.00;98544.13;1738345;81;20994;-77
2022/06/19 04:17:41;;;;;;;9.88;6.97;;;;;;;17.95;100.00;98554.38;1768572;81;20998;-76
2022/06/19 04:20:09;;;;;;;13.35;6.83;;;;;;;18.05;100.00;98565.44;1768986;81;20987;-76
2022/06/19 04:22:37;;;;;;;9.90;6.28;;;;;;;18.16;100.00;98582.23;1740974;81;21018;-76
2022/06/19 04:25:06;;;;;;;13.60;6.80;;;;;;;18.32;100.00;98590.63;1757325;81;21028;-76
2022/06/19 04:27:37;;;;;;;10.03;6.30;;;;;;;18.53;100.00;98599.33;1769657;80;21549;-76
2022/06/19 04:30:04;;;;;;;12.68;6.75;;;;;;;18.77;100.00;98609.43;1769171;80;21009;-75
2022/06/19 04:32:31;;;;;;;11.57;6.53;;;;;;;19.08;100.00;98620.67;1769073;81;21514;-75
2022/06/19 04:34:58;;;;;;;11.35;6.60;;;;;;;19.39;100.00;98636.00;1769061;81;21038;-77
2022/06/19 04:37:26;;;;;;;10.80;7.03;;;;;;;19.67;100.00;98655.38;1768774;81;21057;-77
2022/06/19 04:39:54;;;;;;;14.80;6.87;;;;;;;19.98;100.00;98698.66;1769095;81;21037;-76
2022/06/19 04:42:21;;;;;;;13.60;6.95;;;;;;;20.26;100.00;98733.92;1769060;81;21022;-76
2022/06/19 04:44:48;;;;;;;10.82;6.53;;;;;;;20.51;100.00;98794.73;1741329;81;21029;-76
2022/06/19 04:47:15;;;;;;;15.10;6.92;;;;;;;20.78;100.00;98840.74;1768987;81;21549;-74
2022/06/19 04:49:42;;;;;;;12.68;7.10;;;;;;;21.05;100.00;98877.70;1777038;80;21027;-74
2022/06/19 04:52:09;;;;;;;17.02;8.40;;;;;;;21.32;100.00;98941.30;1794660;80;21063;-67
2022/06/19 04:54:36;;;;;;;14.78;7.97;;;;;;;21.54;100.00;98996.69;1766375;80;21061;-68
2022/06/19 04:57:05;;;;;;;17.27;8.48;;;;;;;21.68;100.00;99050.11;1794877;80;21007;-68
2022/06/19 04:59:33;;;;;;;17.73;9.08;;;;;;;21.88;100.00;99107.70;1795211;80;20995;-67
2022/06/19 05:02:01;;;;;;;15.32;8.48;;;;;;;22.05;100.00;99143.30;1766381;80;21046;-73
2022/06/19 05:04:28;;;;;;;15.88;8.80;;;;;;;22.21;100.00;99183.55;1794981;79;21007;-68
2022/06/19 05:06:55;;;;;;;17.55;8.85;;;;;;;22.30;100.00;99219.13;1766461;80;21042;-68
2022/06/19 05:09:22;;;;;;;15.75;7.60;;;;;;;22.48;100.00;99240.42;1766389;80;21528;-68
2022/06/19 05:11:50;;;;;;;16.20;7.55;;;;;;;22.63;100.00;99265.81;1794768;80;21046;-67
2022/06/19 05:14:17;;;;;;;11.90;7.08;;;;;;;22.84;100.00;99279.12;1741542;80;21027;-67
2022/06/19 05:16:44;;;;;;;13.93;7.03;;;;;;;23.03;100.00;99290.48;1797318;79;20999;-67
2022/06/19 05:19:12;;;;;;;13.18;6.70;;;;;;;23.17;100.00;99323.36;1797560;79;20998;-68
2022/06/19 05:21:39;;;;;;;8.80;5.83;;;;;;;23.30;100.00;99340.78;1778319;80;21509;-67
2022/06/19 05:24:08;;;;;;;11.93;5.83;;;;;;;23.46;100.00;99347.69;1797682;79;21057;-67
2022/06/19 05:26:35;;;;;;;9.93;5.45;;;;;;;23.65;100.00;99360.42;1778752;80;21021;-67
2022/06/19 05:29:03;;;;;;;10.30;6.17;;;;;;;23.79;100.00;99397.42;1797639;80;21022;-68
2022/06/19 05:31:31;;;;;;;10.35;5.53;;;;;;;23.93;100.00;99417.07;1797188;80;21441;-67
2022/06/19 05:33:59;;;;;;;10.32;5.92;;;;;;;24.16;100.00;99421.78;1797684;79;21062;-67
2022/06/19 05:36:28;;;;;;;10.80;6.10;;;;;;;24.40;100.00;99427.03;1797533;79;21014;-74
2022/06/19 05:38:56;;;;;;;10.18;5.65;;;;;;;24.64;100.00;99456.87;1797644;80;20991;-72
2022/06/19 05:41:23;;;;;;;10.20;6.65;;;;;;;24.82;100.00;99470.13;1797426;80;21026;-73
2022/06/19 05:43:51;;;;;;;10.80;7.05;;;;;;;25.01;100.00;99493.02;1778691;80;21018;-74
2022/06/19 05:46:19;;;;;;;11.45;6.65;;;;;;;25.14;100.00;99524.27;1797392;79;21034;-74
2022/06/19 05:48:47;;;;;;;9.40;6.17;;;;;;;25.17;100.00;99547.75;1801870;79;21044;-73
2022/06/19 05:51:20;;;;;;;10.68;6.35;;;;;;;25.20;100.00;99566.57;1808261;79;21054;-74
2022/06/19 05:53:53;;;;;;;8.48;5.80;;;;;;;25.33;100.00;99558.27;1808371;79;21022;-74
2022/06/19 05:56:21;;;;;;;13.60;7.22;;;;;;;25.56;100.00;99565.11;1808289;79;21007;-73
2022/06/19 05:58:48;;;;;;;14.50;7.65;;;;;;;25.83;100.00;99566.67;1808123;79;21472;-74
2022/06/19 06:01:17;;;;;;;11.75;6.83;;;;;;;26.11;100.00;99602.01;1808087;79;21050;-73
2022/06/19 06:03:44;;;;;;;15.43;7.53;;;;;;;26.19;100.00;99643.55;1808570;79;21432;-74
2022/06/19 06:06:17;;;;;;;12.20;6.10;;;;;;;26.28;100.00;99635.47;1808356;79;21043;-74
2022/06/19 06:08:44;;;;;;;12.25;6.30;;;;;;;26.49;100.00;99614.01;1777948;79;21014;-74
2022/06/19 06:11:13;;;;;;;12.75;7.15;;;;;;;26.79;100.00;99735.02;1801292;79;21528;-73
2022/06/19 06:13:40;;;;;;;13.68;6.85;;;;;;;27.00;100.00;100010.39;1786293;80;21036;-74
2022/06/19 06:16:07;;;;;;;11.48;6.55;;;;;;;27.01;100.00;100092.50;1810066;79;20974;-73
2022/06/19 06:18:36;;;;;;;12.28;6.90;;;;;;;27.12;100.00;100116.91;1813597;79;21054;-74
2022/06/19 06:21:06;;;;;;;12.03;6.10;;;;;;;27.29;100.00;100126.36;1813410;79;21026;-73
2022/06/19 06:23:33;;;;;;;9.55;5.90;;;;;;;27.41;100.00;100130.20;1777075;79;20998;-74
2022/06/19 06:26:10;;;;;;;9.50;5.62;;;;;;;27.61;100.00;100126.56;1770041;81;21015;-74
2022/06/19 06:28:39;;;;;;;10.72;5.70;;;;;;;27.88;100.00;100134.50;1747654;82;21046;-73
2022/06/19 06:31:06;;;;;;;11.55;6.42;;;;;;;28.09;100.00;100140.83;1747798;82;21018;-73
2022/06/19 06:33:34;;;;;;;12.73;6.08;;;;;;;28.28;100.00;100142.41;1723002;82;21094;-73
2022/06/19 06:36:01;;;;;;;9.33;5.90;;;;;;;28.54;100.00;100140.34;1747501;82;21034;-73
2022/06/19 06:38:29;;;;;;;9.88;5.85;;;;;;;28.86;100.00;100145.94;1747517;82;21538;-74
2022/06/19 06:40:56;;;;;;;11.55;6.10;;;;;;;29.17;100.00;100147.09;1747631;82;21386;-73
2022/06/19 06:43:23;;;;;;;9.75;5.65;;;;;;;29.46;100.00;100152.63;1747411;82;21062;-75
2022/06/19 06:45:50;;;;;;;9.40;5.67;;;;;;;29.59;100.00;100157.23;1747813;82;21022;-74
2022/06/19 06:48:18;;;;;;;10.45;5.55;;;;;;;29.53;100.00;100161.50;1746646;81;21006;-72
2022/06/19 06:50:45;;;;;;;6.62;4.85;;;;;;;29.65;100.00;100161.06;1737397;82;21057;-72
2022/06/19 06:53:12;;;;;;;7.90;4.90;;;;;;;29.79;100.00;100156.22;1713436;82;21005;-73
2022/06/19 06:55:41;;;;;;;7.10;5.00;;;;;;;29.81;100.00;100160.36;1737428;82;21105;-73
2022/06/19 06:58:10;;;;;;;9.73;4.92;;;;;;;29.78;100.00;100153.98;1713493;82;21005;-74
2022/06/19 07:00:37;;;;;;;8.43;5.17;;;;;;;29.61;100.00;100161.97;1737805;82;21562;-73
2022/06/19 07:03:04;;;;;;;6.10;5.08;;;;;;;29.39;100.00;100164.68;1713358;82;21499;-73
2022/06/19 07:05:33;;;;;;;5.95;4.50;;;;;;;29.35;100.00;100166.41;1737574;82;21072;-76
2022/06/19 07:08:00;;;;;;;8.05;4.72;;;;;;;29.46;100.00;100167.95;1713561;82;21080;-72
2022/06/19 07:10:27;;;;;;;8.58;5.10;;;;;;;29.67;100.00;100160.20;1737785;82;21046;-72
2022/06/19 07:12:55;;;;;;;11.20;5.85;;;;;;;29.87;100.00;100163.91;1658021;84;21092;-72
2022/06/19 07:15:23;;;;;;;8.05;5.22;;;;;;;29.65;100.00;100169.42;1710803;82;21522;-72
2022/06/19 07:17:52;;;;;;;8.78;4.97;;;;;;;29.05;100.00;100180.01;1737393;82;21647;-72
2022/06/19 07:20:19;;;;;;;8.75;5.42;;;;;;;28.40;100.00;100172.09;1737931;82;20997;-72
2022/06/19 07:22:47;;;;;;;10.25;5.12;;;;;;;27.92;100.00;100170.92;1713367;82;21522;-73
2022/06/19 07:25:17;;;;;;;6.80;4.65;;;;;;;27.59;100.00;100171.27;1765901;80;21074;-73
2022/06/19 07:27:45;;;;;;;10.65;5.20;;;;;;;27.52;100.00;100167.13;1765929;80;21681;-73
2022/06/19 07:30:22;;;;;;;11.48;5.30;;;;;;;27.74;100.00;100166.22;1792533;80;21044;-72
2022/06/19 07:32:51;;;;;;;7.67;4.80;;;;;;;27.98;100.00;100169.23;1766150;80;21048;-75
2022/06/19 07:35:18;;;;;;;8.15;5.08;;;;;;;28.21;100.00;100175.25;1792267;80;21069;-73
2022/06/19 07:37:46;;;;;;;11.20;5.40;;;;;;;28.52;100.00;100179.24;1792240;80;21072;-73
2022/06/19 07:40:15;;;;;;;7.12;4.85;;;;;;;28.84;100.00;100181.55;1792586;79;20980;-73
2022/06/19 07:42:43;;;;;;;8.78;5.28;;;;;;;29.11;100.00;100185.79;1792397;80;21004;-73
2022/06/19 07:45:10;;;;;;;9.78;5.40;;;;;;;29.36;100.00;100186.17;1765958;80;21053;-74
2022/06/19 07:50:23;;;;;;;7.90;4.75;;;;;;;29.06;100.00;100180.30;1813887;79;21050;-74
2022/06/19 07:52:51;;;;;;;8.53;5.50;;;;;;;29.01;100.00;100182.55;1777182;80;22200;-73
2022/06/19 07:55:25;;;;;;;13.22;6.47;;;;;;;29.23;100.00;100188.23;1722310;82;21003;-74
2022/06/19 07:57:54;;;;;;;8.85;5.75;;;;;;;29.54;100.00;100186.81;1780442;80;21518;-75
2022/06/19 08:00:26;;;;;;;9.68;5.65;;;;;;;29.69;100.00;100185.84;1780661;80;21103;-73
2022/06/19 08:02:53;;;;;;;10.10;5.65;;;;;;;29.29;100.00;100189.86;1697715;84;21085;-73
2022/06/19 08:05:22;;;;;;;9.53;5.80;;;;;;;29.18;100.00;100186.34;1653186;84;21538;-71
2022/06/19 08:07:52;;;;;;;8.63;5.35;;;;;;;29.51;100.00;100184.61;1697180;84;21109;-75
2022/06/19 08:10:25;;;;;;;11.20;5.75;;;;;;;29.95;100.00;100181.38;1697374;84;21082;-74
2022/06/19 08:12:52;;;;;;;8.75;5.30;;;;;;;30.35;100.00;100183.41;1708773;84;21098;-74
2022/06/19 08:15:21;;;;;;;9.20;5.40;;;;;;;30.79;100.00;100179.97;1679526;84;21022;-74
2022/06/19 08:17:49;;;;;;;9.28;5.47;;;;;;;31.22;100.00;100185.45;1697417;84;21090;-75
2022/06/19 08:20:17;;;;;;;8.75;5.50;;;;;;;31.53;99.03;100180.72;1674309;83;21093;-73
2022/06/19 08:22:44;;;;;;;9.30;5.22;;;;;;;31.67;96.40;100180.16;1674008;84;21127;-75
2022/06/19 08:25:13;;;;;;;8.95;5.30;;;;;;;31.78;95.53;100184.98;1697743;84;21138;-76
2022/06/19 08:27:42;;;;;;;11.38;5.47;;;;;;;31.69;90.63;100189.64;1674621;84;21038;-75
2022/06/19 08:30:19;;;;;;;8.45;5.62;;;;;;;31.17;85.08;100184.95;1697597;84;21074;-76
2022/06/19 08:32:47;;;;;;;14.80;5.85;;;;;;;30.38;87.97;100184.77;1697317;83;21070;-75
2022/06/19 08:35:14;;;;;;;8.55;5.17;;;;;;;29.81;92.59;100192.41;1698014;83;21058;-74
2022/06/19 08:37:42;;;;;;;10.70;5.53;;;;;;;29.49;92.16;100186.05;1674685;84;21607;-75
2022/06/19 08:40:21;;;;;;;14.40;5.33;;;;;;;29.07;100.00;100190.28;1697742;84;21066;-74
2022/06/19 08:43:10;;;;;;;9.98;5.75;;;;;;;29.18;100.00;100185.49;1693027;84;21614;-77
2022/06/19 08:45:48;;;;;;;6.55;4.85;;;;;;;29.53;99.86;100178.20;1698006;84;21078;-77
2022/06/19 08:48:33;;;;;;;8.83;5.20;;;;;;;29.54;96.55;100179.03;1646638;86;21141;-74
2022/06/19 08:51:24;;;;;;;8.45;5.05;;;;;;;29.75;97.15;100173.22;1643077;85;21109;-75
2022/06/19 08:54:26;;;;;;;6.95;4.50;;;;;;;30.16;98.94;100172.20;1610133;89;21079;-77
2022/06/19 08:57:02;;;;;;;6.67;4.30;;;;;;;30.77;97.71;100170.50;1596179;88;21124;-76
2022/06/19 09:00:08;;;;;;;6.08;4.15;;;;;;;31.06;87.23;100168.67;1670884;83;21559;-76
2022/06/19 09:02:58;;;;;;;5.30;3.87;;;;;;;30.68;85.24;100170.92;1736106;83;21086;-77
2022/06/19 09:06:12;;;;;;;7.53;4.30;;;;;;;30.34;92.13;100165.55;1735866;83;21515;-76
2022/06/19 09:09:11;;;;;;;8.95;4.80;;;;;;;30.62;91.65;100169.36;1712032;83;21162;-74
2022/06/19 09:12:26;;;;;;;9.65;5.70;;;;;;;31.09;88.87;100172.26;1694939;84;21413;-75
2022/06/19 09:15:04;;;;;;;6.85;4.87;;;;;;;31.28;83.96;100171.64;1717896;83;21090;-76
2022/06/19 09:17:59;;;;;;;8.30;5.17;;;;;;;31.12;82.26;100169.69;1736529;83;21480;-75
2022/06/19 09:21:00;;;;;;;7.00;5.15;;;;;;;30.80;79.18;100170.47;1680652;85;21090;-75
2022/06/19 09:23:51;;;;;;;8.95;5.10;;;;;;;30.62;79.28;100163.78;1598837;89;21099;-75
2022/06/19 09:26:30;;;;;;;8.75;4.70;;;;;;;30.94;82.09;100160.80;1549472;90;21155;-75
2022/06/19 09:29:20;;;;;;;6.97;4.85;;;;;;;31.46;81.54;100157.92;1573589;91;21133;-77
2022/06/19 09:32:07;;;;;;;10.58;4.95;;;;;;;31.92;79.54;100152.27;1573837;91;21153;-76
2022/06/19 09:34:53;;;;;;;8.35;4.58;;;;;;;32.41;71.97;100155.44;1466930;96;21290;-76
2022/06/19 09:37:31;;;;;;;20.43;5.50;;;;;;;32.60;70.38;100160.06;1452896;99;21128;-77
2022/06/19 09:40:06;;;;;;;7.60;4.62;;;;;;;32.81;70.43;100159.86;1440238;100;21105;-77
2022/06/19 09:42:50;;;;;;;8.35;4.87;;;;;;;32.75;64.06;100161.11;1390973;103;21161;-76
2022/06/19 09:45:29;;;;;;;5.30;4.20;;;;;;;32.31;65.70;100158.46;1365414;105;21130;-76
2022/06/19 09:48:20;;;;;;;6.28;4.58;;;;;;;31.79;64.88;100155.91;1329387;107;21670;-75
2022/06/19 09:51:01;;;;;;;6.12;3.83;;;;;;;31.21;67.19;100152.48;1308603;108;21273;-74
2022/06/19 09:53:45;;;;;;;8.08;4.55;;;;;;;30.62;69.48;100156.23;1308741;108;21178;-74
2022/06/19 09:56:49;;;;;;;8.18;4.28;;;;;;;30.04;71.14;100159.25;1331596;107;21184;-74
2022/06/19 09:59:36;;;;;;;6.87;3.85;;;;;;;29.46;73.46;100158.77;1348190;106;21115;-75
2022/06/19 10:02:14;;;;;;;5.30;3.85;;;;;;;29.11;79.05;100152.38;1347921;105;21161;-75
2022/06/19 10:04:58;;;;;;;5.17;4.00;;;;;;;29.45;83.13;100145.98;1348275;106;21131;-76
2022/06/19 10:07:33;;;;;;;6.08;4.05;;;;;;;30.00;76.98;100144.27;1348214;106;21135;-76
2022/06/19 10:10:04;;;;;;;5.25;3.80;;;;;;;30.34;72.62;100136.27;1332893;106;21135;-77
2022/06/19 10:12:40;;;;;;;6.03;4.07;;;;;;;30.63;68.51;100141.70;1348838;106;21235;-77
2022/06/19 10:15:17;;;;;;;4.47;4.03;;;;;;;30.77;63.44;100132.82;1341858;106;21291;-77
2022/06/19 10:18:05;;;;;;;6.33;3.90;;;;;;;30.90;68.99;100131.23;1334304;108;21218;-78
2022/06/19 10:21:10;;;;;;;5.75;3.65;;;;;;;31.47;70.03;100132.47;1342859;106;21173;-78
2022/06/19 10:23:58;;;;;;;3.77;3.47;;;;;;;32.07;67.65;100134.96;1346734;105;21698;-77
2022/06/19 10:26:40;;;;;;;3.37;3.10;;;;;;;32.58;63.54;100136.59;1345222;107;21259;-78
2022/06/19 10:29:30;;;;;;;4.75;3.58;;;;;;;32.88;58.59;100131.38;1323141;107;21165;-79
2022/06/19 10:32:18;;;;;;;3.72;3.33;;;;;;;33.07;55.77;100131.19;1411719;100;21192;-75
2022/06/19 10:35:05;;;;;;;5.08;3.62;;;;;;;33.13;54.74;100125.75;1441446;100;21146;-77
2022/06/19 10:37:44;;;;;;;10.03;3.52;;;;;;;33.21;55.79;100120.75;1447997;96;21160;-78
2022/06/19 10:40:24;;;;;;;5.47;3.60;;;;;;;33.37;55.90;100117.55;1505716;94;21114;-77
2022/06/19 10:43:39;;;;;;;6.60;3.85;;;;;;;33.44;50.66;100114.52;1529763;94;21114;-79
2022/06/19 10:46:10;;;;;;;5.87;3.55;;;;;;;33.49;50.25;100108.77;1529962;94;21121;-78
2022/06/19 10:48:57;;;;;;;4.30;3.37;;;;;;;33.64;52.22;100114.53;1549588;92;21739;-78
2022/06/19 10:51:45;;;;;;;4.58;3.72;;;;;;;33.88;50.55;100106.88;1527081;93;21152;-77
2022/06/19 10:54:59;;;;;;;3.75;3.37;;;;;;;34.08;49.52;100107.64;1525098;93;21127;-79
2022/06/19 10:57:44;;;;;;;3.52;3.20;;;;;;;34.34;48.89;100112.50;1523443;94;21158;-80
2022/06/19 11:00:13;;;;;;;4.12;3.02;;;;;;;34.71;48.39;100108.22;1427053;99;21133;-79
2022/06/19 11:06:15;;;;;;;5.25;3.60;;;;;;;34.71;43.24;100098.39;1456193;98;21143;-77
2022/06/19 11:08:44;;;;;;;4.08;2.80;;;;;;;34.34;44.99;100101.28;1445710;98;21123;-77
2022/06/19 11:11:16;;;;;;;4.72;3.37;;;;;;;34.38;47.84;100097.46;1478882;97;21043;-77
2022/06/19 11:14:10;;;;;;;8.10;3.42;;;;;;;34.60;47.32;100093.67;1436187;99;21208;-75
2022/06/19 11:17:00;;;;;;;5.55;3.33;;;;;;;34.70;45.63;100099.54;1437791;100;21609;-75
2022/06/19 11:19:43;;;;;;;4.20;3.20;;;;;;;34.56;43.89;100088.45;1416751;101;21138;-78
2022/06/19 11:22:36;;;;;;;3.30;3.00;;;;;;;34.35;44.65;100102.35;1453598;99;21609;-77
2022/06/19 11:25:30;;;;;;;4.10;3.20;;;;;;;34.39;45.09;100099.13;1454011;99;21125;-76
2022/06/19 11:28:15;;;;;;;4.03;3.20;;;;;;;34.65;45.39;100090.44;1454213;99;21144;-77
2022/06/19 11:30:47;;;;;;;4.80;3.20;;;;;;;35.01;45.06;100086.42;1460787;96;21097;-78
2022/06/19 11:33:30;;;;;;;4.85;3.05;;;;;;;35.33;43.62;100092.89;1471605;98;21209;-79
2022/06/19 11:36:01;;;;;;;3.40;2.93;;;;;;;35.23;39.84;100091.84;1449667;99;21100;-78
2022/06/19 11:38:46;;;;;;;4.08;3.22;;;;;;;34.94;41.25;100085.56;1417127;101;21260;-78
2022/06/19 11:41:23;;;;;;;3.33;3.00;;;;;;;34.94;41.14;100085.56;1451362;99;21121;-79
2022/06/19 11:44:17;;;;;;;3.05;2.75;;;;;;;34.90;41.86;100084.00;1450011;99;21075;-78
2022/06/19 11:46:52;;;;;;;6.50;2.80;;;;;;;34.93;41.19;100083.30;1396903;103;21138;-76
2022/06/19 11:49:30;;;;;;;4.00;3.05;;;;;;;34.89;41.30;100084.33;1417000;101;21110;-75
2022/06/19 11:52:00;;;;;;;3.55;2.87;;;;;;;34.87;41.51;100090.27;1437040;99;21639;-79
2022/06/19 11:54:32;;;;;;;3.92;2.90;;;;;;;34.77;40.36;100082.19;1437598;100;21117;-78
2022/06/19 11:57:00;;;;;;;4.95;2.90;;;;;;;34.72;41.43;100084.58;1481850;94;21079;-77